Time;durP1;ratioP1;P1;durP2;ratioP2;P2;SDS_P1;SDS_P2;PMS_P1;PMS_P2;Temp;Humidity;BMP_temperature;BMP_pressure;BME280_temperature;BME280_humidity;BME280_pressure;Samples;Min_cycle;Max_cycle;Signal;HPM_P1;HPM_P2
2020/12/25 00:00:12;;;;;;;11.27;10.10;;;5.40;99.90;;;;;;5044518;28;20177;-74
2020/12/25 00:02:37;;;;;;;10.70;9.67;;;5.30;99.90;;;;;;5054125;28;20275;-73
2020/12/25 00:05:03;;;;;;;11.03;9.10;;;5.30;99.90;;;;;;5046176;28;20175;-74
2020/12/25 00:07:29;;;;;;;9.20;8.10;;;5.30;99.90;;;;;;5053704;28;20178;-75
2020/12/25 00:09:54;;;;;;;10.73;8.60;;;5.40;99.90;;;;;;5036933;28;20206;-74
2020/12/25 00:12:20;;;;;;;9.90;8.67;;;5.40;99.90;;;;;;5045577;28;20683;-74
2020/12/25 00:14:45;;;;;;;11.10;9.73;;;5.50;99.90;;;;;;5053984;28;20272;-74
2020/12/25 00:17:11;;;;;;;10.30;8.70;;;5.50;99.90;;;;;;5053089;28;20339;-74
2020/12/25 00:19:36;;;;;;;11.20;8.80;;;5.40;99.90;;;;;;5041079;28;20190;-74
2020/12/25 00:22:02;;;;;;;9.00;8.10;;;5.40;99.90;;;;;;5042207;28;20643;-73
2020/12/25 00:24:27;;;;;;;12.90;8.57;;;5.40;99.90;;;;;;5037072;28;20236;-74
2020/12/25 00:26:53;;;;;;;9.37;8.40;;;5.40;99.90;;;;;;5046214;28;20212;-74
2020/12/25 00:29:18;;;;;;;7.70;7.00;;;5.40;99.90;;;;;;5035060;28;20261;-74
2020/12/25 00:31:45;;;;;;;9.00;7.87;;;5.40;99.90;;;;;;5045093;28;20171;-74
2020/12/25 00:34:11;;;;;;;8.80;7.40;;;5.40;99.90;;;;;;5036537;28;20188;-74
2020/12/25 00:36:42;;;;;;;9.73;7.07;;;5.30;99.90;;;;;;5041183;28;20924;-74
2020/12/25 00:39:15;;;;;;;8.07;6.87;;;5.30;99.90;;;;;;5041556;28;20186;-75
2020/12/25 00:41:49;;;;;;;7.40;6.60;;;5.20;99.90;;;;;;5041823;28;20421;-74
2020/12/25 00:44:15;;;;;;;8.80;6.60;;;5.20;99.90;;;;;;5041544;28;20412;-74
2020/12/25 00:46:42;;;;;;;6.70;5.80;;;5.30;99.90;;;;;;5043833;28;20457;-74
2020/12/25 00:49:07;;;;;;;8.60;6.03;;;5.30;99.90;;;;;;5037632;28;20982;-74
2020/12/25 00:51:33;;;;;;;6.37;5.87;;;5.30;99.90;;;;;;5035577;28;20577;-74
2020/12/25 00:53:59;;;;;;;7.07;6.10;;;5.40;99.90;;;;;;5046729;28;20212;-74
2020/12/25 00:56:25;;;;;;;11.93;6.87;;;5.40;99.90;;;;;;5042159;28;20853;-75
2020/12/25 00:58:51;;;;;;;6.90;6.20;;;5.50;99.90;;;;;;5052967;28;20188;-75
2020/12/25 01:01:16;;;;;;;8.03;7.00;;;5.50;99.90;;;;;;5052466;28;20438;-75
2020/12/25 01:03:44;;;;;;;6.30;5.30;;;5.70;99.90;;;;;;5041485;28;20976;-74
2020/12/25 01:06:11;;;;;;;6.57;5.90;;;5.70;99.90;;;;;;5048301;28;20522;-75
2020/12/25 01:08:37;;;;;;;6.30;5.70;;;5.60;99.90;;;;;;5042496;28;20422;-75
2020/12/25 01:11:04;;;;;;;6.20;4.80;;;5.60;99.90;;;;;;5033193;28;20468;-75
2020/12/25 01:13:31;;;;;;;6.83;5.27;;;5.50;99.90;;;;;;5033399;28;20436;-75
2020/12/25 01:16:04;;;;;;;5.10;4.60;;;5.40;99.90;;;;;;5032073;28;20530;-75
2020/12/25 01:18:30;;;;;;;5.63;4.57;;;5.40;99.90;;;;;;5041936;28;20523;-75
2020/12/25 01:20:55;;;;;;;5.17;4.70;;;5.50;99.90;;;;;;5052377;28;20467;-75
2020/12/25 01:23:21;;;;;;;6.13;5.50;;;5.60;99.90;;;;;;5052594;28;20169;-75
2020/12/25 01:25:47;;;;;;;6.67;6.03;;;5.60;99.90;;;;;;5032936;28;20214;-76
2020/12/25 01:28:12;;;;;;;6.47;5.00;;;5.50;99.90;;;;;;5033147;28;20221;-75
2020/12/25 01:30:38;;;;;;;7.63;5.40;;;5.40;99.90;;;;;;5035517;28;20268;-74
2020/12/25 01:33:03;;;;;;;8.90;5.60;;;5.40;99.90;;;;;;5041620;28;20684;-75
2020/12/25 01:35:29;;;;;;;8.00;5.10;;;5.40;99.90;;;;;;5039542;28;20286;-75
2020/12/25 01:37:54;;;;;;;7.50;5.83;;;5.40;99.90;;;;;;5047554;28;20198;-75
2020/12/25 01:40:20;;;;;;;6.63;6.03;;;5.40;99.90;;;;;;5055693;28;20175;-75
2020/12/25 01:42:45;;;;;;;6.67;6.03;;;5.30;99.90;;;;;;5054393;28;20226;-75
2020/12/25 01:45:11;;;;;;;10.97;5.80;;;5.20;99.90;;;;;;5055688;28;20185;-74
2020/12/25 01:47:37;;;;;;;5.87;5.27;;;5.20;99.90;;;;;;5055705;28;20182;-74
2020/12/25 01:50:03;;;;;;;10.10;6.50;;;5.30;99.90;;;;;;5035476;28;20680;-75
2020/12/25 01:52:29;;;;;;;7.73;6.37;;;5.20;99.90;;;;;;5044761;28;20433;-74
2020/12/25 01:54:55;;;;;;;16.83;6.87;;;5.20;99.90;;;;;;5055790;28;20433;-74
2020/12/25 01:57:22;;;;;;;9.37;5.50;;;5.20;99.90;;;;;;5043799;28;20438;-74
2020/12/25 01:59:49;;;;;;;10.00;5.40;;;5.10;99.90;;;;;;5086166;28;20504;-74
2020/12/25 02:02:16;;;;;;;9.70;6.37;;;5.10;99.90;;;;;;5056487;28;20420;-74
2020/12/25 02:04:42;;;;;;;8.93;5.60;;;5.10;99.90;;;;;;5054592;28;20444;-74
2020/12/25 02:07:07;;;;;;;9.70;6.40;;;5.00;99.90;;;;;;5035881;28;20517;-74
2020/12/25 02:09:33;;;;;;;6.87;5.87;;;4.90;99.90;;;;;;5050980;28;20756;-74
2020/12/25 02:11:59;;;;;;;7.63;5.40;;;4.80;99.90;;;;;;5054568;28;20547;-75
2020/12/25 02:14:24;;;;;;;8.73;5.80;;;4.80;99.90;;;;;;5049518;28;20201;-74
2020/12/25 02:16:50;;;;;;;9.13;5.50;;;4.80;99.90;;;;;;5036872;28;20252;-74
2020/12/25 02:19:15;;;;;;;7.77;5.10;;;4.90;99.90;;;;;;5043340;28;20171;-74
2020/12/25 02:21:41;;;;;;;9.23;5.50;;;4.80;99.90;;;;;;5043409;28;20177;-74
2020/12/25 02:24:08;;;;;;;6.60;5.30;;;4.80;99.90;;;;;;5053156;28;20272;-74
2020/12/25 02:26:34;;;;;;;6.10;4.90;;;4.90;99.90;;;;;;5040448;28;20850;-74
2020/12/25 02:29:00;;;;;;;5.13;4.63;;;5.00;99.90;;;;;;5036097;28;20903;-74
2020/12/25 02:31:25;;;;;;;4.53;3.90;;;4.90;99.90;;;;;;5034597;28;20471;-74
2020/12/25 02:33:51;;;;;;;6.70;4.30;;;4.80;99.90;;;;;;5051149;28;20208;-74
2020/12/25 02:36:16;;;;;;;6.07;4.03;;;4.80;99.90;;;;;;5043580;28;20229;-74
2020/12/25 02:38:42;;;;;;;5.03;4.30;;;4.80;99.90;;;;;;5042840;28;20177;-74
2020/12/25 02:41:07;;;;;;;9.03;4.50;;;4.80;99.90;;;;;;5054324;28;20188;-75
2020/12/25 02:43:33;;;;;;;4.23;3.67;;;4.80;99.90;;;;;;5039365;28;20196;-75
2020/12/25 02:45:58;;;;;;;6.27;3.80;;;4.90;99.90;;;;;;5044402;28;20221;-75
2020/12/25 02:48:24;;;;;;;9.30;4.00;;;5.00;99.90;;;;;;5040401;28;20177;-75
2020/12/25 02:50:49;;;;;;;5.90;3.53;;;4.90;99.90;;;;;;5041322;28;20237;-75
2020/12/25 02:53:15;;;;;;;4.07;3.20;;;4.80;99.90;;;;;;5043095;28;20194;-75
2020/12/25 02:55:40;;;;;;;5.00;3.03;;;4.80;99.90;;;;;;5041880;28;20202;-74
2020/12/25 02:58:06;;;;;;;9.03;3.20;;;4.80;99.90;;;;;;5035470;28;20177;-74
2020/12/25 03:00:31;;;;;;;4.63;2.73;;;4.80;99.90;;;;;;5035572;28;20259;-74
2020/12/25 03:02:57;;;;;;;3.37;3.03;;;4.90;99.90;;;;;;5042442;28;20195;-74
2020/12/25 03:05:22;;;;;;;4.00;3.00;;;4.90;99.90;;;;;;5041661;28;20258;-74
2020/12/25 03:07:48;;;;;;;6.23;2.70;;;5.00;99.90;;;;;;5043489;28;20186;-74
2020/12/25 03:10:13;;;;;;;4.07;2.97;;;4.90;99.90;;;;;;5034703;28;20255;-74
2020/12/25 03:12:40;;;;;;;7.37;2.97;;;4.90;99.90;;;;;;5034872;28;20178;-74
2020/12/25 03:15:05;;;;;;;8.00;3.37;;;5.00;99.90;;;;;;5043157;28;20165;-74
2020/12/25 03:17:31;;;;;;;3.80;2.60;;;5.10;99.90;;;;;;5034896;28;20938;-74
2020/12/25 03:19:56;;;;;;;5.30;2.90;;;5.10;99.90;;;;;;5034639;28;20178;-74
2020/12/25 03:22:22;;;;;;;4.63;3.03;;;5.10;99.90;;;;;;5034791;28;20217;-74
2020/12/25 03:24:47;;;;;;;3.20;2.60;;;5.10;99.90;;;;;;5034841;28;20181;-74
2020/12/25 03:27:13;;;;;;;9.33;3.20;;;5.10;99.90;;;;;;5034315;28;20202;-74
2020/12/25 03:29:38;;;;;;;3.10;2.67;;;5.10;99.90;;;;;;5041026;28;20167;-74
2020/12/25 03:32:04;;;;;;;9.63;3.63;;;5.00;99.90;;;;;;5033429;28;20236;-74
2020/12/25 03:34:29;;;;;;;5.97;3.10;;;4.90;99.90;;;;;;5042623;28;20749;-74
2020/12/25 03:36:55;;;;;;;6.80;2.50;;;4.80;99.90;;;;;;5047743;28;20193;-74
2020/12/25 03:39:21;;;;;;;5.53;2.70;;;4.60;99.90;;;;;;5053632;28;20207;-74
2020/12/25 03:41:46;;;;;;;3.67;2.80;;;4.60;99.90;;;;;;5052538;28;20882;-74
2020/12/25 03:44:12;;;;;;;3.33;2.10;;;4.50;99.90;;;;;;5038024;28;20206;-74
2020/12/25 03:46:38;;;;;;;4.60;2.77;;;4.50;99.90;;;;;;5033920;28;20292;-74
2020/12/25 03:49:05;;;;;;;4.53;2.60;;;4.40;99.90;;;;;;5040586;28;20176;-74
2020/12/25 03:51:30;;;;;;;3.00;2.23;;;4.40;99.90;;;;;;5034055;28;20454;-74
2020/12/25 03:53:56;;;;;;;5.40;2.27;;;4.40;99.90;;;;;;5033099;28;20763;-74
2020/12/25 03:56:21;;;;;;;4.27;2.57;;;4.40;99.90;;;;;;5042516;28;20192;-74
2020/12/25 03:58:47;;;;;;;5.30;3.07;;;4.30;99.90;;;;;;5045553;28;20619;-74
2020/12/25 04:01:12;;;;;;;5.43;2.73;;;4.30;99.90;;;;;;5085677;28;20277;-74
2020/12/25 04:03:38;;;;;;;4.73;2.70;;;4.40;99.90;;;;;;5053052;28;20272;-74
2020/12/25 04:06:03;;;;;;;8.77;3.20;;;4.50;99.90;;;;;;5053433;28;20198;-74
2020/12/25 04:08:29;;;;;;;6.33;2.83;;;4.40;99.90;;;;;;5035996;28;20199;-74
2020/12/25 04:10:54;;;;;;;4.23;2.60;;;4.40;99.90;;;;;;5037378;28;20205;-74
2020/12/25 04:13:21;;;;;;;4.30;2.70;;;4.40;99.90;;;;;;5053046;28;20323;-74
2020/12/25 04:15:47;;;;;;;6.47;2.90;;;4.40;99.90;;;;;;5040396;28;20206;-74
2020/12/25 04:18:12;;;;;;;3.10;2.37;;;4.30;99.90;;;;;;5039791;28;20428;-74
2020/12/25 04:20:38;;;;;;;5.90;3.03;;;4.20;99.90;;;;;;5051118;28;20547;-74
2020/12/25 04:23:03;;;;;;;7.13;2.43;;;4.20;99.90;;;;;;5046975;28;20619;-75
2020/12/25 04:25:29;;;;;;;6.23;2.60;;;4.30;99.90;;;;;;5045403;28;20215;-75
2020/12/25 04:27:54;;;;;;;7.17;2.70;;;4.40;99.90;;;;;;5033774;28;20198;-75
2020/12/25 04:30:20;;;;;;;3.27;2.97;;;4.30;99.90;;;;;;5032257;28;20564;-75
2020/12/25 04:32:45;;;;;;;8.13;2.97;;;4.30;99.90;;;;;;5041310;28;20204;-74
2020/12/25 04:35:11;;;;;;;4.90;2.50;;;4.30;99.90;;;;;;5033147;28;20716;-74
2020/12/25 04:37:36;;;;;;;5.03;2.63;;;4.40;99.90;;;;;;5031632;28;20220;-74
2020/12/25 04:40:04;;;;;;;5.47;2.30;;;4.50;99.90;;;;;;5034394;28;20183;-74
2020/12/25 04:42:30;;;;;;;7.63;2.50;;;4.50;99.90;;;;;;5049004;28;20184;-74
2020/12/25 04:44:55;;;;;;;7.37;2.80;;;4.50;99.90;;;;;;5052044;28;20945;-74
2020/12/25 04:47:21;;;;;;;5.73;3.17;;;4.50;99.90;;;;;;5046888;28;20566;-74
2020/12/25 04:49:48;;;;;;;6.10;3.40;;;4.50;99.90;;;;;;5042429;28;20197;-74
2020/12/25 04:52:13;;;;;;;4.37;2.20;;;4.50;99.90;;;;;;5051010;28;20190;-74
2020/12/25 04:54:39;;;;;;;5.80;2.30;;;4.40;99.90;;;;;;5044263;28;20776;-74
2020/12/25 04:57:04;;;;;;;3.13;2.40;;;4.40;99.90;;;;;;5033282;28;20192;-74
2020/12/25 04:59:30;;;;;;;4.07;2.20;;;4.20;99.90;;;;;;5032973;28;20228;-74
2020/12/25 05:01:59;;;;;;;6.50;2.43;;;4.20;99.90;;;;;;5050987;28;20202;-74
2020/12/25 05:04:25;;;;;;;4.67;2.20;;;4.30;99.90;;;;;;5044930;28;20405;-74
2020/12/25 05:06:52;;;;;;;7.47;2.83;;;4.30;99.90;;;;;;5055158;28;20539;-73
2020/12/25 05:09:25;;;;;;;6.93;2.47;;;4.40;99.90;;;;;;5036002;28;20265;-75
2020/12/25 05:11:55;;;;;;;4.20;2.53;;;4.30;99.90;;;;;;5037065;28;20454;-74
2020/12/25 05:14:29;;;;;;;5.00;2.67;;;4.20;99.90;;;;;;5041335;28;20416;-74
2020/12/25 05:16:57;;;;;;;4.83;2.43;;;4.20;99.90;;;;;;5047793;28;20438;-74
2020/12/25 05:19:30;;;;;;;4.13;2.20;;;4.20;99.90;;;;;;5056492;28;20453;-74
2020/12/25 05:21:57;;;;;;;6.27;2.80;;;4.20;99.90;;;;;;5047818;28;20904;-74
2020/12/25 05:24:23;;;;;;;4.53;2.33;;;4.10;99.90;;;;;;5056036;28;20467;-74
2020/12/25 05:26:56;;;;;;;5.77;2.47;;;4.10;99.90;;;;;;5040148;28;20772;-74
2020/12/25 05:29:23;;;;;;;4.60;2.80;;;4.10;99.90;;;;;;5049164;28;20808;-74
2020/12/25 05:31:51;;;;;;;9.60;2.77;;;4.00;99.90;;;;;;5055864;28;20472;-74
2020/12/25 05:34:21;;;;;;;6.67;2.83;;;4.00;99.90;;;;;;5048100;28;20934;-74
2020/12/25 05:36:54;;;;;;;4.40;3.43;;;4.10;99.90;;;;;;5040674;28;20779;-74
2020/12/25 05:39:27;;;;;;;8.20;4.57;;;4.00;99.90;;;;;;5048194;28;20425;-74
2020/12/25 05:41:57;;;;;;;13.23;4.90;;;3.90;99.90;;;;;;5055893;28;20413;-74
2020/12/25 05:44:28;;;;;;;10.97;5.17;;;3.90;99.90;;;;;;5048222;28;20973;-74
2020/12/25 05:46:57;;;;;;;11.57;6.37;;;4.00;99.90;;;;;;5048192;28;20490;-74
2020/12/25 05:49:29;;;;;;;10.90;7.70;;;3.90;99.90;;;;;;5047881;28;20904;-74
2020/12/25 05:51:55;;;;;;;12.10;7.20;;;4.00;99.90;;;;;;5050312;28;20459;-74
2020/12/25 05:54:23;;;;;;;13.77;7.10;;;4.10;99.90;;;;;;5046487;28;20408;-73
2020/12/25 05:56:59;;;;;;;12.73;7.90;;;4.20;99.90;;;;;;5045303;28;20426;-74
2020/12/25 05:59:30;;;;;;;9.93;7.87;;;4.20;99.90;;;;;;5053753;28;20440;-73
2020/12/25 06:01:58;;;;;;;10.40;7.47;;;4.20;99.90;;;;;;5037380;28;20421;-73
2020/12/25 06:04:25;;;;;;;12.53;8.20;;;4.30;99.90;;;;;;5043284;28;20438;-73
2020/12/25 06:06:52;;;;;;;13.40;8.60;;;4.30;99.90;;;;;;5036689;28;20779;-73
2020/12/25 06:09:19;;;;;;;12.17;7.87;;;4.40;99.90;;;;;;5037573;28;20429;-73
2020/12/25 06:11:47;;;;;;;13.17;8.60;;;4.30;99.90;;;;;;5051719;28;20518;-74
2020/12/25 06:14:13;;;;;;;11.40;9.00;;;4.30;99.90;;;;;;5047287;28;20439;-74
2020/12/25 06:16:45;;;;;;;10.37;8.20;;;4.30;99.90;;;;;;5059387;28;20440;-74
2020/12/25 06:19:20;;;;;;;16.57;9.27;;;4.20;99.90;;;;;;5049479;28;20202;-74
2020/12/25 06:21:58;;;;;;;14.53;7.67;;;4.20;99.90;;;;;;5053538;28;20828;-76
2020/12/25 06:24:30;;;;;;;9.90;8.70;;;4.20;99.90;;;;;;5053788;28;20497;-74
2020/12/25 06:26:58;;;;;;;14.73;8.07;;;4.20;99.90;;;;;;5053750;28;20839;-75
2020/12/25 06:29:25;;;;;;;20.10;7.50;;;4.30;99.90;;;;;;5055236;28;20909;-74
2020/12/25 06:31:57;;;;;;;12.80;8.07;;;4.40;99.90;;;;;;5042904;28;20527;-74
2020/12/25 06:34:38;;;;;;;9.77;7.03;;;4.40;99.90;;;;;;5036520;28;20959;-74
2020/12/25 06:37:08;;;;;;;15.70;8.73;;;4.50;99.90;;;;;;5048754;28;20435;-74
2020/12/25 06:39:33;;;;;;;9.63;7.90;;;4.60;99.90;;;;;;5045192;28;20408;-74
2020/12/25 06:41:59;;;;;;;11.97;7.60;;;4.60;99.90;;;;;;5040560;28;20422;-74
2020/12/25 06:44:29;;;;;;;12.20;7.80;;;4.60;99.90;;;;;;5043350;28;20200;-73
2020/12/25 06:47:01;;;;;;;12.37;7.87;;;4.60;99.90;;;;;;5050647;28;20274;-74
2020/12/25 06:49:34;;;;;;;8.43;7.50;;;4.60;99.90;;;;;;5033975;28;20421;-74
2020/12/25 06:52:00;;;;;;;12.40;8.30;;;4.60;99.90;;;;;;5042652;28;20495;-74
2020/12/25 06:54:26;;;;;;;11.00;7.43;;;4.70;99.90;;;;;;5034962;28;20426;-75
2020/12/25 06:56:53;;;;;;;17.53;10.30;;;4.70;99.90;;;;;;5033526;28;20286;-74
2020/12/25 06:59:21;;;;;;;20.77;9.57;;;4.60;99.90;;;;;;5042378;28;20412;-74
2020/12/25 07:01:48;;;;;;;10.00;6.80;;;4.50;99.90;;;;;;5052652;28;20477;-74
2020/12/25 07:04:30;;;;;;;8.87;6.43;;;4.40;99.90;;;;;;5054258;28;20437;-75
2020/12/25 07:07:07;;;;;;;13.93;7.10;;;4.30;99.90;;;;;;5045738;28;20776;-75
2020/12/25 07:09:36;;;;;;;10.20;6.67;;;4.40;99.90;;;;;;5048035;28;20821;-74
2020/12/25 07:12:08;;;;;;;12.50;6.53;;;4.50;99.90;;;;;;5053780;28;20420;-75
2020/12/25 07:14:33;;;;;;;10.47;6.00;;;4.50;99.90;;;;;;5054355;28;20415;-75
2020/12/25 07:16:59;;;;;;;12.90;6.83;;;4.50;99.90;;;;;;5043562;28;20446;-75
2020/12/25 07:19:25;;;;;;;8.23;5.60;;;4.50;99.90;;;;;;5039998;28;20478;-75
2020/12/25 07:21:52;;;;;;;7.70;4.67;;;4.50;99.90;;;;;;5043895;28;20190;-74
2020/12/25 07:24:17;;;;;;;11.53;5.60;;;4.30;99.90;;;;;;5052558;28;20171;-75
2020/12/25 07:26:45;;;;;;;9.57;5.20;;;4.20;99.90;;;;;;5046734;28;20449;-74
2020/12/25 07:29:14;;;;;;;8.87;5.97;;;4.00;99.90;;;;;;5045173;28;20605;-75
2020/12/25 07:31:51;;;;;;;10.13;6.20;;;3.90;99.90;;;;;;5047333;28;20500;-75
2020/12/25 07:34:24;;;;;;;15.70;6.60;;;3.90;99.90;;;;;;5034629;28;20422;-75
2020/12/25 07:36:54;;;;;;;10.20;6.80;;;3.90;99.90;;;;;;5041820;28;20487;-75
2020/12/25 07:39:22;;;;;;;10.57;7.20;;;4.00;99.90;;;;;;5053833;28;20500;-74
2020/12/25 07:41:48;;;;;;;11.10;8.30;;;4.00;99.90;;;;;;5047244;28;20441;-74
2020/12/25 07:44:14;;;;;;;16.07;8.90;;;3.90;99.90;;;;;;5044538;28;20497;-74
2020/12/25 07:46:40;;;;;;;14.40;9.50;;;3.90;99.90;;;;;;5051617;28;20540;-75
2020/12/25 07:49:06;;;;;;;14.37;9.03;;;3.80;99.90;;;;;;5045377;28;20178;-74
2020/12/25 07:51:33;;;;;;;13.37;9.27;;;3.90;99.90;;;;;;5053478;28;20979;-75
2020/12/25 07:54:00;;;;;;;14.33;9.73;;;3.80;99.90;;;;;;5053463;28;20433;-75
2020/12/25 07:56:30;;;;;;;15.03;9.50;;;3.90;99.90;;;;;;5035452;28;20453;-75
2020/12/25 07:58:57;;;;;;;17.67;10.53;;;3.90;99.90;;;;;;5042536;28;20425;-75
2020/12/25 08:01:24;;;;;;;13.83;10.00;;;3.90;99.90;;;;;;5050645;28;20428;-75
2020/12/25 08:03:50;;;;;;;18.93;10.60;;;3.90;99.90;;;;;;5039784;28;21351;-75
2020/12/25 08:06:17;;;;;;;13.03;10.53;;;3.80;99.90;;;;;;5053178;28;20444;-74
2020/12/25 08:08:52;;;;;;;12.73;10.20;;;3.90;99.90;;;;;;5049928;28;20434;-74
2020/12/25 08:11:20;;;;;;;19.47;10.50;;;3.90;99.90;;;;;;5042117;28;20821;-74
2020/12/25 08:13:48;;;;;;;17.00;9.90;;;3.80;99.90;;;;;;5049387;28;20939;-74
2020/12/25 08:16:14;;;;;;;16.80;9.93;;;3.70;99.90;;;;;;5033175;28;20449;-75
2020/12/25 08:18:39;;;;;;;15.77;10.47;;;3.70;99.90;;;;;;5044629;28;20464;-75
2020/12/25 08:21:05;;;;;;;17.97;10.87;;;3.70;99.90;;;;;;5039596;28;20422;-74
2020/12/25 08:23:35;;;;;;;13.27;10.13;;;3.70;99.90;;;;;;5042097;28;20267;-74
2020/12/25 08:26:01;;;;;;;16.90;10.13;;;3.70;99.90;;;;;;5041775;28;20252;-75
2020/12/25 08:28:31;;;;;;;12.33;10.37;;;3.70;99.90;;;;;;5034154;28;20513;-75
2020/12/25 08:31:13;;;;;;;12.03;10.00;;;3.80;99.90;;;;;;5040684;28;20986;-75
2020/12/25 08:33:38;;;;;;;10.10;8.63;;;3.80;99.90;;;;;;5033383;28;20457;-74
2020/12/25 08:36:10;;;;;;;9.93;8.90;;;3.80;99.90;;;;;;5033610;28;20437;-74
2020/12/25 08:38:43;;;;;;;9.90;8.30;;;3.80;99.90;;;;;;5041206;28;20292;-73
2020/12/25 08:41:09;;;;;;;17.23;8.73;;;3.80;99.90;;;;;;5039833;28;20425;-74
2020/12/25 08:43:34;;;;;;;11.30;8.70;;;3.80;99.90;;;;;;5033798;28;20422;-74
2020/12/25 08:46:02;;;;;;;10.30;8.40;;;3.80;99.90;;;;;;5048861;28;20429;-74
2020/12/25 08:48:29;;;;;;;10.40;6.70;;;3.80;99.90;;;;;;5042109;28;20646;-75
2020/12/25 08:51:09;;;;;;;8.57;6.73;;;3.70;99.90;;;;;;5035752;28;20450;-74
2020/12/25 08:53:35;;;;;;;8.60;6.40;;;3.70;99.90;;;;;;5052994;28;20541;-75
2020/12/25 08:56:20;;;;;;;10.43;6.50;;;3.70;99.90;;;;;;5049661;28;20437;-75
2020/12/25 08:59:03;;;;;;;12.53;6.80;;;3.80;99.90;;;;;;5041789;28;20773;-74
2020/12/25 09:01:32;;;;;;;6.70;6.00;;;3.90;99.90;;;;;;5041992;28;20422;-75
2020/12/25 09:04:01;;;;;;;6.53;4.93;;;3.90;99.90;;;;;;5033453;28;20832;-74
2020/12/25 09:06:29;;;;;;;6.43;5.20;;;4.00;99.90;;;;;;5041456;28;20472;-75
2020/12/25 09:08:56;;;;;;;9.73;5.10;;;4.00;99.90;;;;;;5049033;28;20425;-74
2020/12/25 09:11:24;;;;;;;6.20;4.30;;;4.10;99.90;;;;;;5045646;28;20460;-75
2020/12/25 09:13:51;;;;;;;5.63;4.53;;;4.00;99.90;;;;;;5045354;28;20468;-75
2020/12/25 09:16:17;;;;;;;7.07;4.40;;;4.00;99.90;;;;;;5042093;28;20484;-75
2020/12/25 09:18:43;;;;;;;5.00;4.27;;;4.00;99.90;;;;;;5045900;28;20405;-75
2020/12/25 09:21:10;;;;;;;6.97;4.83;;;3.90;99.90;;;;;;5036816;28;20202;-73
2020/12/25 09:23:36;;;;;;;7.07;5.20;;;3.90;99.90;;;;;;5048835;28;20446;-73
2020/12/25 09:26:07;;;;;;;7.57;4.90;;;3.80;99.90;;;;;;5033556;28;20446;-75
2020/12/25 09:28:33;;;;;;;10.07;6.77;;;3.70;99.90;;;;;;5053074;28;20433;-75
2020/12/25 09:30:58;;;;;;;8.43;5.87;;;3.70;99.90;;;;;;5038539;28;20545;-74
2020/12/25 09:33:24;;;;;;;11.97;5.77;;;3.70;99.90;;;;;;5035125;28;20616;-74
2020/12/25 09:35:51;;;;;;;12.57;7.10;;;3.70;99.90;;;;;;5052041;28;20190;-74
2020/12/25 09:38:17;;;;;;;8.33;6.67;;;3.80;99.90;;;;;;5044938;28;20463;-74
2020/12/25 09:40:43;;;;;;;12.97;7.77;;;3.90;99.90;;;;;;5036869;28;20437;-74
2020/12/25 09:43:09;;;;;;;12.00;7.80;;;3.90;99.90;;;;;;5052982;28;20419;-74
2020/12/25 09:45:34;;;;;;;12.43;9.50;;;3.80;99.90;;;;;;5043963;28;20223;-74
2020/12/25 09:48:00;;;;;;;14.40;9.50;;;3.80;99.90;;;;;;5050911;28;20422;-75
2020/12/25 09:50:26;;;;;;;15.30;9.77;;;3.90;99.90;;;;;;5048393;28;20202;-74
2020/12/25 09:52:52;;;;;;;16.30;10.10;;;4.00;99.90;;;;;;5038694;28;20952;-75
2020/12/25 09:55:18;;;;;;;17.83;10.80;;;4.20;99.90;;;;;;5054642;28;20474;-75
2020/12/25 09:57:43;;;;;;;11.97;10.07;;;4.40;99.90;;;;;;5065160;28;20894;-76
2020/12/25 10:00:14;;;;;;;13.63;10.30;;;4.50;99.90;;;;;;5047810;28;20179;-75
2020/12/25 10:02:40;;;;;;;14.47;9.77;;;4.60;99.90;;;;;;5054446;28;20297;-74
2020/12/25 10:05:07;;;;;;;12.50;9.50;;;4.60;99.90;;;;;;5051515;28;20464;-74
2020/12/25 10:07:33;;;;;;;14.70;9.87;;;4.60;99.90;;;;;;5044660;28;20424;-74
2020/12/25 10:09:58;;;;;;;13.90;9.60;;;4.70;99.90;;;;;;5052577;28;20452;-74
2020/12/25 10:12:24;;;;;;;12.17;9.23;;;4.70;99.90;;;;;;5042539;28;20418;-74
2020/12/25 10:14:50;;;;;;;7.33;6.63;;;4.70;99.90;;;;;;5047316;28;20183;-75
2020/12/25 10:17:15;;;;;;;12.33;7.90;;;4.70;99.90;;;;;;5042314;28;20204;-75
2020/12/25 10:19:41;;;;;;;9.07;8.00;;;4.70;99.90;;;;;;5043795;28;20203;-75
2020/12/25 10:22:07;;;;;;;10.37;6.67;;;4.60;99.90;;;;;;5047394;28;20310;-75
2020/12/25 10:24:32;;;;;;;9.13;7.03;;;4.60;99.90;;;;;;5040770;28;20178;-75
2020/12/25 10:26:58;;;;;;;12.03;7.10;;;4.60;99.90;;;;;;5045473;28;20201;-75
2020/12/25 10:29:23;;;;;;;8.27;7.20;;;4.60;99.90;;;;;;5045980;28;20206;-75
2020/12/25 10:31:49;;;;;;;11.30;7.80;;;4.60;99.90;;;;;;5046922;28;20203;-75
2020/12/25 10:34:15;;;;;;;9.43;6.83;;;4.70;99.90;;;;;;5046245;28;20213;-74
2020/12/25 10:36:42;;;;;;;9.10;6.50;;;4.80;99.90;;;;;;5055580;28;20446;-74
2020/12/25 10:39:09;;;;;;;10.20;6.77;;;4.70;99.90;;;;;;5046125;28;20430;-73
2020/12/25 10:41:35;;;;;;;10.80;6.83;;;4.60;99.90;;;;;;5049966;28;20476;-75
2020/12/25 10:44:01;;;;;;;13.27;7.83;;;4.50;99.90;;;;;;5043300;28;20924;-74
2020/12/25 10:46:26;;;;;;;10.80;7.80;;;4.50;99.90;;;;;;5043719;28;20189;-75
2020/12/25 10:48:52;;;;;;;10.63;7.70;;;4.60;99.90;;;;;;5041596;28;20422;-74
2020/12/25 10:51:19;;;;;;;13.17;7.13;;;4.60;99.90;;;;;;5044860;28;20206;-74
2020/12/25 10:53:45;;;;;;;9.50;7.73;;;4.50;99.90;;;;;;5035082;28;20174;-74
2020/12/25 10:56:22;;;;;;;12.00;7.23;;;4.60;99.90;;;;;;5042944;28;20749;-74
2020/12/25 10:58:48;;;;;;;13.63;7.83;;;4.60;99.90;;;;;;5043187;28;20968;-74
2020/12/25 11:01:29;;;;;;;9.33;7.20;;;4.50;99.90;;;;;;5035345;28;20423;-73
2020/12/25 11:03:56;;;;;;;12.03;7.37;;;4.50;99.90;;;;;;5033698;28;20446;-74
2020/12/25 11:06:32;;;;;;;13.87;6.07;;;4.40;99.90;;;;;;5043965;28;20460;-74
2020/12/25 11:08:58;;;;;;;6.40;5.80;;;4.40;99.90;;;;;;5046369;28;20473;-74
2020/12/25 11:11:28;;;;;;;9.53;6.13;;;4.30;99.90;;;;;;5052603;28;20461;-74
2020/12/25 11:13:54;;;;;;;15.63;6.67;;;4.30;99.90;;;;;;5054586;28;20410;-74
2020/12/25 11:16:28;;;;;;;8.27;5.70;;;4.30;99.90;;;;;;5045891;28;20439;-75
2020/12/25 11:18:55;;;;;;;9.73;6.00;;;4.30;99.90;;;;;;5050355;28;20444;-74
2020/12/25 11:21:29;;;;;;;10.97;6.43;;;4.40;99.90;;;;;;5035023;28;20426;-74
2020/12/25 11:23:56;;;;;;;10.63;6.70;;;4.50;99.90;;;;;;5043429;28;20433;-74
2020/12/25 11:26:22;;;;;;;9.60;5.83;;;4.60;99.90;;;;;;5049946;28;20534;-75
2020/12/25 11:28:52;;;;;;;5.60;4.60;;;4.70;99.90;;;;;;5037480;28;20441;-75
2020/12/25 11:31:18;;;;;;;7.80;4.27;;;4.90;99.90;;;;;;5038800;28;20823;-75
2020/12/25 11:33:45;;;;;;;11.03;4.40;;;5.00;99.90;;;;;;5043813;28;20438;-74
2020/12/25 11:36:16;;;;;;;6.10;4.60;;;5.10;99.90;;;;;;5041589;28;20469;-75
2020/12/25 11:38:42;;;;;;;8.90;4.73;;;5.20;99.90;;;;;;5034740;28;20435;-75
2020/12/25 11:41:11;;;;;;;8.33;4.03;;;5.30;99.90;;;;;;5046104;28;20436;-75
2020/12/25 11:43:38;;;;;;;6.17;3.10;;;5.40;99.90;;;;;;5038335;28;20414;-75
2020/12/25 11:46:05;;;;;;;3.80;2.90;;;5.40;99.90;;;;;;5050750;28;20449;-75
2020/12/25 11:48:31;;;;;;;5.07;3.00;;;5.30;99.90;;;;;;5034839;28;20418;-75
2020/12/25 11:50:56;;;;;;;6.97;3.13;;;5.20;99.90;;;;;;5042481;28;20454;-75
2020/12/25 11:53:23;;;;;;;6.13;3.60;;;5.10;99.90;;;;;;5044642;28;20539;-75
2020/12/25 11:55:49;;;;;;;9.13;4.00;;;5.00;99.90;;;;;;5051988;28;20282;-75
2020/12/25 11:58:15;;;;;;;6.47;4.33;;;5.10;99.90;;;;;;5045164;28;20448;-75
2020/12/25 12:00:41;;;;;;;5.80;4.10;;;5.10;99.90;;;;;;5053678;28;20502;-73
2020/12/25 12:03:07;;;;;;;7.37;3.40;;;5.10;99.90;;;;;;5036750;28;20983;-73
2020/12/25 12:05:33;;;;;;;5.07;3.00;;;5.10;99.90;;;;;;5048844;28;20452;-73
2020/12/25 12:07:59;;;;;;;4.33;3.23;;;5.20;99.90;;;;;;5042678;28;20458;-77
2020/12/25 12:10:24;;;;;;;7.30;2.73;;;5.20;99.90;;;;;;5044481;28;20293;-75
2020/12/25 12:12:50;;;;;;;5.40;2.90;;;5.20;99.90;;;;;;5044387;28;20272;-76
2020/12/25 12:15:15;;;;;;;5.83;2.70;;;5.30;99.90;;;;;;5051783;28;20208;-76
2020/12/25 12:17:41;;;;;;;3.47;2.40;;;5.40;99.90;;;;;;5056909;28;20170;-77
2020/12/25 12:20:06;;;;;;;7.07;2.47;;;5.40;99.90;;;;;;5049894;28;20185;-76
2020/12/25 12:22:32;;;;;;;6.73;2.67;;;5.30;99.90;;;;;;5041638;28;20251;-76
2020/12/25 12:24:57;;;;;;;4.17;2.50;;;5.30;99.90;;;;;;5045860;28;20651;-76
2020/12/25 12:27:25;;;;;;;7.70;3.13;;;5.30;99.90;;;;;;5047629;28;20227;-76
2020/12/25 12:29:51;;;;;;;5.30;3.47;;;5.20;99.90;;;;;;5047548;28;20174;-74
2020/12/25 12:32:16;;;;;;;7.53;3.63;;;5.10;99.90;;;;;;5038369;28;20472;-73
2020/12/25 12:34:42;;;;;;;11.40;4.10;;;5.10;99.90;;;;;;5044774;28;20185;-73
2020/12/25 12:37:07;;;;;;;7.20;3.20;;;5.10;99.90;;;;;;5046211;28;20538;-73
2020/12/25 12:39:33;;;;;;;12.43;3.77;;;5.20;99.90;;;;;;5043792;28;20172;-75
2020/12/25 12:41:58;;;;;;;5.90;2.90;;;5.20;99.90;;;;;;5049828;28;20177;-75
2020/12/25 12:44:24;;;;;;;7.20;3.33;;;5.20;99.90;;;;;;5048717;28;20187;-74
2020/12/25 12:46:56;;;;;;;7.53;5.00;;;5.20;99.90;;;;;;5043535;28;20654;-74
2020/12/25 12:49:22;;;;;;;6.17;2.43;;;5.20;99.90;;;;;;5040247;28;20548;-73
2020/12/25 12:51:48;;;;;;;4.67;2.83;;;5.10;99.90;;;;;;5035954;28;20971;-73